createdAt,value
2019-03-09T00:00:59.768Z,2.06
2019-03-09T00:06:07.927Z,2.48
2019-03-09T00:11:15.390Z,2.80
2019-03-09T00:16:23.450Z,3.68
2019-03-09T00:21:31.926Z,3.47
2019-03-09T00:26:39.017Z,3.89
2019-03-09T00:31:46.220Z,3.13
2019-03-09T00:37:07.181Z,3.58
2019-03-09T00:41:55.670Z,3.26
2019-03-09T00:47:03.857Z,2.86
2019-03-09T00:52:11.975Z,3.25
2019-03-09T00:57:20.192Z,3.06
2019-03-09T01:02:27.505Z,3.05
2019-03-09T01:07:35.588Z,3.13
2019-03-09T01:12:43.853Z,3.58
2019-03-09T01:17:52.118Z,4.14
2019-03-09T01:23:12.418Z,3.05
2019-03-09T01:27:59.497Z,3.70
2019-03-09T01:33:07.780Z,3.82
2019-03-09T01:38:15.802Z,3.71
2019-03-09T01:43:24.052Z,3.76
2019-03-09T01:48:31.166Z,5.43
2019-03-09T01:53:39.528Z,3.57
2019-03-09T01:58:46.730Z,3.07
2019-03-09T02:04:06.836Z,3.88
2019-03-09T02:08:55.026Z,3.71
2019-03-09T02:14:02.238Z,3.04
2019-03-09T02:19:10.442Z,3.29
2019-03-09T02:24:18.651Z,3.22
2019-03-09T02:29:25.856Z,2.97
2019-03-09T02:34:33.339Z,3.24
2019-03-09T02:39:40.570Z,3.11
2019-03-09T02:44:50.985Z,3.09
2019-03-09T02:49:48.185Z,3.15
2019-03-09T02:54:55.484Z,2.89
2019-03-09T03:00:02.814Z,2.92
2019-03-09T03:05:10.034Z,2.55
2019-03-09T03:10:18.271Z,2.58
2019-03-09T03:15:25.600Z,2.58
2019-03-09T03:20:32.838Z,2.07
2019-03-09T03:25:53.144Z,2.12
2019-03-09T03:30:53.287Z,2.20
2019-03-09T03:35:40.460Z,2.58
2019-03-09T03:40:48.634Z,2.33
2019-03-09T03:45:55.942Z,2.80
2019-03-09T03:51:15.928Z,2.40
2019-03-09T03:56:04.304Z,2.62
2019-03-09T04:01:12.509Z,2.27
2019-03-09T04:06:20.141Z,2.43
2019-03-09T04:11:27.395Z,2.88
2019-03-09T04:16:34.791Z,2.61
2019-03-09T04:21:41.997Z,3.04
2019-03-09T04:26:49.386Z,2.41
2019-03-09T04:31:56.622Z,2.39
2019-03-09T04:37:03.863Z,3.04
2019-03-09T04:42:12.053Z,2.90
2019-03-09T04:47:19.258Z,2.48
2019-03-09T04:52:27.327Z,2.34
2019-03-09T04:57:35.670Z,2.86
2019-03-09T05:02:42.907Z,2.40
2019-03-09T05:07:50.327Z,2.74
2019-03-09T05:12:57.774Z,3.39
2019-03-09T05:18:04.934Z,3.28
2019-03-09T05:23:12.005Z,3.60
2019-03-09T05:28:20.364Z,2.75
2019-03-09T05:33:27.436Z,3.30
2019-03-09T05:38:35.628Z,2.84
2019-03-09T05:43:43.865Z,2.45
2019-03-09T05:48:51.329Z,2.74
2019-03-09T05:53:58.373Z,2.78
2019-03-09T05:59:06.678Z,3.37
2019-03-09T06:04:14.927Z,3.05
2019-03-09T06:09:35.202Z,2.94
2019-03-09T06:14:22.383Z,3.09
2019-03-09T06:19:30.830Z,3.34
2019-03-09T06:24:38.094Z,3.19
2019-03-09T06:29:45.477Z,3.15
2019-03-09T06:34:52.618Z,2.93
2019-03-09T06:40:00.973Z,3.20
2019-03-09T06:45:08.070Z,3.54
2019-03-09T06:50:29.138Z,3.93
2019-03-09T06:55:17.354Z,3.25
2019-03-09T07:00:24.874Z,3.64
2019-03-09T07:05:32.208Z,3.43
2019-03-09T07:10:39.315Z,2.99
2019-03-09T07:20:56.511Z,3.55
2019-03-09T07:26:16.549Z,3.62
2019-03-09T07:31:04.901Z,3.23
2019-03-09T07:36:25.061Z,3.64
2019-03-09T07:41:25.322Z,3.65
2019-03-09T07:46:12.539Z,3.07
2019-03-09T07:51:19.888Z,3.61
2019-03-09T08:01:29.218Z,3.63
2019-03-09T08:06:37.429Z,4.07
2019-03-09T08:11:44.663Z,4.06
2019-03-09T08:16:51.839Z,3.20
2019-03-09T08:22:00.174Z,3.76
2019-03-09T08:27:08.566Z,3.53
2019-03-09T08:32:15.911Z,2.64
2019-03-09T08:37:22.975Z,2.39
2019-03-09T08:42:44.272Z,2.06
2019-03-09T08:47:51.656Z,3.11
2019-03-09T08:52:31.705Z,2.53
2019-03-09T08:57:51.859Z,2.52
2019-03-09T09:02:39.077Z,1.89
2019-03-09T09:07:47.147Z,1.81
2019-03-09T09:13:08.350Z,1.53
2019-03-09T09:17:55.634Z,1.62
2019-03-09T09:23:02.939Z,1.65
2019-03-09T09:33:11.109Z,1.40
2019-03-09T09:38:18.293Z,2.32
2019-03-09T09:48:40.177Z,2.08
2019-03-09T09:53:28.542Z,1.50
2019-03-09T09:58:35.628Z,1.73
2019-03-09T10:03:43.926Z,1.85
2019-03-09T10:09:04.100Z,1.59
2019-03-09T10:13:51.708Z,2.11
2019-03-09T10:34:04.348Z,1.73
2019-03-09T10:39:12.631Z,1.85
2019-03-09T10:49:37.604Z,1.98
2019-03-09T10:54:24.887Z,1.71
2019-03-09T10:59:32.038Z,1.77
2019-03-09T11:04:40.435Z,1.53
2019-03-09T11:10:00.571Z,1.29
2019-03-09T11:14:48.604Z,1.93
2019-03-09T11:19:56.751Z,1.91
2019-03-09T11:25:04.888Z,1.76
2019-03-09T11:30:13.067Z,1.88
2019-03-09T11:35:20.726Z,1.69
2019-03-09T11:40:27.854Z,1.75
2019-03-09T11:45:48.960Z,2.18
2019-03-09T11:50:37.027Z,2.46
2019-03-09T11:55:45.303Z,2.83
2019-03-09T12:00:52.542Z,2.28
2019-03-09T12:05:59.852Z,1.48
2019-03-09T12:11:07.079Z,2.06
2019-03-09T12:16:14.599Z,1.39
2019-03-09T12:21:21.817Z,1.15
2019-03-09T12:26:42.071Z,1.64
2019-03-09T12:31:29.115Z,1.59
2019-03-09T12:36:37.391Z,1.71
2019-03-09T12:46:49.931Z,1.06
2019-03-09T12:52:11.025Z,1.39
2019-03-09T12:56:58.529Z,1.62
2019-03-09T13:02:06.732Z,1.75
2019-03-09T13:07:15.158Z,1.69
2019-03-09T13:12:22.429Z,1.15
2019-03-09T13:17:43.835Z,2.08
2019-03-09T13:27:38.654Z,2.17
2019-03-09T13:32:46.972Z,1.76
2019-03-09T13:37:54.353Z,1.86
2019-03-09T13:43:01.608Z,1.63
2019-03-09T13:48:21.874Z,1.65
2019-03-09T13:53:09.100Z,2.31
2019-03-09T13:58:16.551Z,2.26
2019-03-09T14:03:23.638Z,2.08
2019-03-09T14:08:32.108Z,1.63
2019-03-09T14:13:39.450Z,1.17
2019-03-09T14:18:47.008Z,1.34
2019-03-09T14:23:55.291Z,1.67
2019-03-09T14:29:02.667Z,1.93
2019-03-09T14:34:23.783Z,1.80
2019-03-09T14:39:23.927Z,1.26
2019-03-09T14:44:11.211Z,1.05
2019-03-09T14:49:31.308Z,1.27
2019-03-09T14:54:19.497Z,1.78
2019-03-09T14:59:39.729Z,1.29
2019-03-09T15:04:26.943Z,1.29
2019-03-09T15:09:34.359Z,1.64
2019-03-09T15:14:42.591Z,1.27
2019-03-09T15:19:49.861Z,1.15
2019-03-09T15:24:57.053Z,1.02
2019-03-09T15:30:05.285Z,0.87
2019-03-09T15:35:12.510Z,1.24
2019-03-09T15:40:33.719Z,0.90
2019-03-09T15:45:33.766Z,1.33
2019-03-09T15:50:22.286Z,0.93
2019-03-09T15:55:29.450Z,1.37
2019-03-09T16:00:36.705Z,1.05
2019-03-09T16:05:45.010Z,1.14
2019-03-09T16:10:52.218Z,0.92
2019-03-09T16:16:00.300Z,1.09
2019-03-09T16:21:10.567Z,1.07
2019-03-09T16:26:08.854Z,0.78
2019-03-09T16:31:29.063Z,0.98
2019-03-09T16:36:16.367Z,0.87
2019-03-09T16:41:36.667Z,1.36
2019-03-09T16:46:23.800Z,1.09
2019-03-09T16:51:45.124Z,1.10
2019-03-09T17:01:33.785Z,1.28
2019-03-09T17:06:53.951Z,1.29
2019-03-09T17:16:44.869Z,1.19
2019-03-09T17:22:06.080Z,1.04
2019-03-09T17:26:54.234Z,1.06
2019-03-09T17:32:14.549Z,0.83
2019-03-09T17:37:01.786Z,1.26
2019-03-09T17:42:10.243Z,2.10
2019-03-09T17:47:16.951Z,1.16
2019-03-09T17:52:24.827Z,1.26
2019-03-09T18:02:48.822Z,1.25
2019-03-09T18:07:48.910Z,1.20
2019-03-09T18:12:40.518Z,1.39
2019-03-09T18:17:49.694Z,0.93
2019-03-09T18:33:07.472Z,1.11
2019-03-09T18:38:01.740Z,1.23
2019-03-09T18:42:59.527Z,1.30
2019-03-09T18:48:24.432Z,1.21
2019-03-09T18:53:26.121Z,0.91
2019-03-09T19:03:31.325Z,1.04
2019-03-09T19:23:25.114Z,1.40
2019-03-09T19:28:33.402Z,1.70
2019-03-09T19:33:40.700Z,1.72
2019-03-09T19:38:47.993Z,1.35
2019-03-09T19:43:55.247Z,1.70
2019-03-09T19:49:03.541Z,1.97
2019-03-09T19:54:11.066Z,2.01
2019-03-09T19:59:31.940Z,1.77
2019-03-09T20:04:33.204Z,2.18
2019-03-09T20:09:33.215Z,1.80
2019-03-09T20:14:34.500Z,2.00
2019-03-09T20:19:34.618Z,2.66
2019-03-09T20:24:21.956Z,2.44
2019-03-09T20:29:41.923Z,2.32
2019-03-09T20:34:30.231Z,2.11
2019-03-09T20:39:50.321Z,2.04
2019-03-09T20:44:37.517Z,3.25
2019-03-09T20:49:58.697Z,2.43
2019-03-09T20:54:45.931Z,2.78
2019-03-09T20:59:53.198Z,2.57
2019-03-09T21:05:00.752Z,2.81
2019-03-09T21:10:07.873Z,3.18
2019-03-09T21:15:15.150Z,3.04
2019-03-09T21:20:39.340Z,2.97
2019-03-09T21:25:26.749Z,3.05
2019-03-09T21:30:33.952Z,3.02
2019-03-09T21:35:42.203Z,2.50
2019-03-09T21:41:03.322Z,2.59
2019-03-09T21:45:50.803Z,2.15
2019-03-09T21:51:10.800Z,2.36
2019-03-09T21:56:11.970Z,2.54
2019-03-09T22:06:05.995Z,2.29
2019-03-09T22:11:20.129Z,2.90
2019-03-09T22:16:07.915Z,2.32
2019-03-09T22:21:27.878Z,3.01
2019-03-09T22:26:16.258Z,2.83
2019-03-09T22:31:36.434Z,2.50
2019-03-09T22:36:36.777Z,2.21
2019-03-09T22:41:24.021Z,2.54
2019-03-09T22:46:31.476Z,2.75
2019-03-09T22:51:39.677Z,2.51
2019-03-09T22:56:59.896Z,2.69
2019-03-09T23:02:01.017Z,2.76
2019-03-09T23:07:01.262Z,2.93
2019-03-09T23:11:48.644Z,2.56
2019-03-09T23:16:57.028Z,3.13
2019-03-09T23:22:04.065Z,3.06
2019-03-09T23:27:25.273Z,3.10
2019-03-09T23:32:26.279Z,2.96
2019-03-09T23:37:27.282Z,2.38
2019-03-09T23:42:15.336Z,2.58
2019-03-09T23:47:36.694Z,3.03
2019-03-09T23:52:37.832Z,2.73
2019-03-09T23:57:38.025Z,2.46
